Thousand Palms, CA (92276)

4:16 PM PDT on September 02, 2015 (GMT -0700)
DesertWeather com | | Change Station
CLOSE
Current Station
Personal Weather Station
Location: Thousand Palms, CA
Elevation: 275 ft
Nearby Weather Stations

Elev 275 ft 33.82 °N, 116.40 °W | Updated 6 seconds ago

Partly Cloudy
Partly Cloudy
101.0 °F
Feels Like 98 °F
N
1.3
Wind Variable Wind from SSE
Gusts 2.3 mph

Today
High -- | Low -- °F
--% Chance of Precip.
Yesterday
High -- | Low -- °F
Precip. -- in
6:19 AM 7:09 PM
Waning Gibbous, 76% visible
Pressure 29.76 in
Visibility 10.0 miles
Clouds Clear
Heat Index 98 °F
Dew Point 50 °F
Humidity 18%
Rainfall 0.00 in
Snow Depth Not available.
UV 5 out of 12
Pollen 7.00 out of 12
Air Quality Not available.
Flu Activity Not available.
METAR KPSP 022253Z 31010KT 10SM CLR 38/07 A2977 RMK AO2 WSHFT 2204 SLP076 T03830067
Pressure 29.76 in
Visibility 10.0 miles
Clouds Clear
Heat Index 98 °F
Dew Point 50 °F
Humidity 18%
Rainfall 0.00 in
Snow Depth Not available.
UV 5 out of 12
Pollen 7.00 out of 12
Air Quality Not available.
Flu Activity Not available.
METAR KPSP 022253Z 31010KT 10SM CLR 38/07 A2977 RMK AO2 WSHFT 2204 SLP076 T03830067

10-Day Weather Forecast

×

Almanac

Astronomy

Sep. 02, 2015 Rise Set
Actual Time
Civil Twilight
Nautical Twilight
Astronomical Twilight
Moon
Length of Visible Light
Length of Day
Tomorrow will be .
, % of the Moon is Illuminated

Today's Extremes

State Highs State Lows

Community

WunderPhotos

Upload Photos

1,851,823 photos uploaded!

WunderBlogs® & News

Nearby

Air Quality

  Air Quality AQ Index Pollutant
Not available.

Snow Depth

Station Depth Elevation

Earthquake Activity

City Distance Mag. Time & Date
Minimum magnitude displayed is 2.5.

Coastal Water Temperatures

Place Temperature

Stations

Nearby Weather Stations

Station Location Temp. Windchill Dew Point Humidity Wind Precip. Elev Updated Type